Latest Weather Observations for Canberra

IDN60801

Issued at 9:05 am EST Tuesday 2 September 2014 (issued every 30 minutes, with the page automatically refreshed every 10 minutes)

About weather observations | Map of weather stations | Latest weather observations for NSW | Other Formats
Station Details ID: 070351 Name: CANBERRA AIRPORT Lat: -35.31 Lon: 149.20 Height: 577.05 m
Data from the previous 72 hours. | See also: Recent months at Canberra
Date/Time
EST
Temp
°C
App
Temp
°C
Dew
Point
Rel
Hum
%
Delta-T
°C
Wind Press
QNH
hPa
Press
MSL
hPa
Rain
since 9 am
mm
Dir
 
Spd
km/h
Gust
km/h
Spd
kts
Gust
kts
02/09:00am 9.1 6.2 6.4 83 1.3 W 11 15 6 8 1011.0 - 1.4
02/08:40am 7.6 4.5 5.7 88 0.9 N 11 13 6 7 1011.0 - 1.4
02/08:00am 7.1 5.8 5.9 92 0.6 N 2 7 1 4 1010.9 - 1.4
02/07:30am 6.4 4.1 5.0 91 0.6 ESE 6 7 3 4 1010.8 - 1.2
02/07:20am 6.4 2.8 4.9 90 0.7 SSE 13 22 7 12 1010.7 - 1.0
02/07:13am 6.5 2.9 4.8 89 0.8 SE 13 22 7 12 1010.6 - 0.6
02/07:09am 7.1 4.3 5.3 88 0.8 ENE 9 22 5 12 1010.5 - 0.0
02/07:00am 7.3 4.2 5.6 89 0.8 N 11 15 6 8 1010.3 - 0.0
02/06:30am 7.5 3.5 5.1 85 1.1 NNW 15 19 8 10 1009.8 - 0.0
02/06:00am 7.6 2.8 4.9 83 1.2 NW 19 26 10 14 1009.7 1009.9 0.0
02/05:30am 7.7 2.1 5.2 84 1.2 NW 24 32 13 17 1009.6 - 0.0
02/05:00am 7.5 3.6 5.5 87 0.9 NNW 15 20 8 11 1009.2 - 0.0
02/04:30am 7.4 1.8 5.4 87 0.9 NW 24 32 13 17 1008.8 - 0.0
02/04:00am 7.9 1.9 5.4 84 1.2 NW 26 32 14 17 1009.2 - 0.0
02/03:30am 8.4 2.0 5.3 81 1.4 NNW 28 35 15 19 1009.0 - 0.0
02/03:00am 8.8 2.4 5.0 77 1.8 NNW 28 37 15 20 1009.2 1009.4 0.0
02/02:30am 9.7 4.4 5.1 73 2.1 NNW 22 32 12 17 1009.1 - 0.0
02/02:00am 10.3 6.3 4.9 69 2.5 NNW 15 22 8 12 1009.5 - 0.0
02/01:30am 10.2 5.4 4.6 68 2.6 WNW 19 26 10 14 1010.1 - 0.0
02/01:00am 10.7 5.4 4.8 67 2.8 WNW 22 30 12 16 1010.4 - 0.0
02/12:30am 10.8 5.9 4.9 67 2.8 WNW 20 28 11 15 1010.6 - 0.0
02/12:00am 11.2 5.9 4.9 65 3.0 WNW 22 35 12 19 1010.5 1010.6 0.0
 
Date/Time
EST
Temp
°C
App
Temp
°C
Dew
Point
Rel
Hum
%
Delta-T
°C
Wind Press
QNH
hPa
Press
MSL
hPa
Rain
since 9 am
mm
Dir
 
Spd
km/h
Gust
km/h
Spd
kts
Gust
kts
01/11:30pm 11.4 6.4 4.8 64 3.1 NW 20 32 11 17 1010.2 - 0.0
01/11:00pm 11.8 7.2 5.4 65 3.1 NW 19 22 10 12 1010.1 - 0.0
01/10:30pm 12.2 6.6 5.6 64 3.2 NNW 24 32 13 17 1010.1 - 0.0
01/10:00pm 12.0 6.7 5.2 63 3.2 N 22 28 12 15 1010.1 - 0.0
01/09:30pm 11.2 7.2 5.1 66 2.9 WNW 15 19 8 10 1010.2 - 0.0
01/09:00pm 11.3 7.6 4.7 64 3.1 N 13 17 7 9 1009.8 1010.0 0.0
01/08:30pm 12.3 8.3 5.0 61 3.5 N 15 20 8 11 1010.2 - 0.0
01/08:00pm 13.3 8.4 5.2 58 3.9 N 20 26 11 14 1010.4 - 0.0
01/07:30pm 13.5 8.7 5.7 59 3.8 N 20 28 11 15 1010.6 - 0.0
01/07:00pm 13.4 8.9 6.0 61 3.6 N 19 28 10 15 1010.7 - 0.0
01/06:30pm 13.3 9.3 6.6 64 3.3 N 17 19 9 10 1010.8 - 0.0
01/06:00pm 13.9 8.5 6.5 61 3.7 NNW 24 33 13 18 1010.9 1011.1 0.0
01/05:30pm 14.2 8.9 6.6 60 3.8 NNW 24 33 13 18 1010.7 - 0.0
01/05:00pm 15.1 9.7 6.4 56 4.3 NNW 24 32 13 17 1010.7 - 0.0
01/04:30pm 16.3 9.8 6.7 53 4.9 NNW 30 39 16 21 1010.9 - 0.0
01/04:00pm 15.4 8.3 5.6 52 4.8 NW 32 41 17 22 1010.9 - 0.0
01/03:30pm 17.7 10.7 5.9 46 5.9 NW 32 43 17 23 1011.0 - 0.0
01/03:00pm 17.2 10.4 6.7 50 5.4 NW 32 41 17 22 1011.4 1011.6 0.0
01/02:30pm 16.9 10.8 6.7 51 5.2 NNW 28 43 15 23 1011.6 - 0.0
01/02:00pm 17.2 11.5 6.7 50 5.4 NNW 26 37 14 20 1011.7 - 0.0
01/01:30pm 16.9 9.8 6.4 50 5.3 NNW 33 43 18 23 1012.3 - 0.0
01/01:00pm 17.2 10.7 6.7 50 5.4 NNW 30 43 16 23 1013.0 - 0.0
01/12:30pm 16.8 10.2 6.0 49 5.4 NNW 30 41 16 22 1013.7 - 0.0
01/12:00pm 16.1 9.9 6.3 52 4.9 NNW 28 37 15 20 1014.3 1014.5 0.0
01/11:30am 15.0 10.1 5.2 52 4.8 NW 20 30 11 16 1014.9 - 0.0
01/11:00am 14.4 10.4 6.7 60 3.9 NNW 17 22 9 12 1015.3 - 0.0
01/10:30am 11.3 9.4 6.6 73 2.3 N 6 11 3 6 1015.9 - 0.0
01/10:00am 9.7 8.3 5.7 76 1.9 WNW 2 6 1 3 1016.2 - 0.0
01/09:30am 8.6 7.3 6.1 84 1.2 ESE 2 6 1 3 1016.4 - 0.0
01/09:00am 6.3 5.2 4.9 91 0.6 CALM 0 0 0 0 1016.7 1017.0 0.0
01/08:30am 5.2 3.9 4.3 94 0.4 CALM 0 0 0 0 1017.0 - 0.0
01/08:00am 4.8 3.2 4.7 99 0.0 SSE 2 7 1 4 1017.2 - 0.0
01/07:30am 2.5 0.9 2.4 99 0.0 CALM 0 0 0 0 1017.4 - 0.0
01/07:16am 1.0 -1.6 0.9 99 0.0 E 4 6 2 3 1017.4 - 0.0
01/07:09am 0.2 -2.9 0.1 99 0.0 E 6 6 3 3 1017.4 - 0.0
01/07:00am -0.3 -3.5 -0.4 99 0.0 E 6 7 3 4 1017.2 - 0.0
01/06:45am -1.6 -5.0 -2.0 97 0.1 N 6 7 3 4 1017.1 - 0.0
01/06:30am -0.8 -3.3 -1.1 98 0.1 NNW 2 9 1 5 1017.2 - 0.0
01/06:00am -0.2 -2.3 -0.5 98 0.1 CALM 0 0 0 0 1016.9 1017.2 0.0
01/05:30am -0.3 -2.4 -0.9 96 0.2 CALM 0 0 0 0 1016.9 - 0.0
01/05:00am -0.2 -2.3 -0.8 96 0.2 CALM 0 0 0 0 1016.7 - 0.0
01/04:30am -0.1 -2.6 -0.7 96 0.2 ESE 2 6 1 3 1016.5 - 0.0
01/04:00am 1.2 -0.6 1.1 99 0.0 CALM 0 4 0 2 1016.4 - 0.0
01/03:46am 0.9 -1.0 0.6 98 0.1 CALM 0 6 0 3 1016.3 - 0.0
01/03:30am 0.0 -2.1 -0.6 96 0.2 CALM 0 2 0 1 1016.4 - 0.0
01/03:28am -0.1 -2.2 -0.8 95 0.3 CALM 0 0 0 0 1016.4 - 0.0
01/03:00am 1.1 -1.5 0.7 97 0.2 NNW 4 7 2 4 1016.6 1016.9 0.0
01/02:30am 1.6 -1.3 1.2 97 0.2 NE 6 7 3 4 1016.8 - 0.0
01/02:00am 1.2 -0.7 0.6 96 0.2 CALM 0 0 0 0 1017.1 - 0.0
01/01:30am 1.4 -2.3 0.2 92 0.5 ESE 9 11 5 6 1016.9 - 0.0
01/01:00am 3.2 1.2 2.3 94 0.4 S 2 6 1 3 1017.4 - 0.0
01/12:30am 2.8 -0.2 1.8 93 0.4 E 7 9 4 5 1017.5 - 0.0
01/12:00am 3.8 2.3 3.2 96 0.3 CALM 0 2 0 1 1017.6 1017.8 0.0
 
Date/Time
EST
Temp
°C
App
Temp
°C
Dew
Point
Rel
Hum
%
Delta-T
°C
Wind Press
QNH
hPa
Press
MSL
hPa
Rain
since 9 am
mm
Dir
 
Spd
km/h
Gust
km/h
Spd
kts
Gust
kts
31/11:30pm 2.1 -1.5 0.8 91 0.5 S 9 11 5 6 1017.7 - 0.0
31/11:00pm 4.4 1.0 2.1 85 1.0 S 9 13 5 7 1017.7 - 0.0
31/10:30pm 7.6 4.6 4.0 78 1.6 NNE 9 11 5 6 1018.0 - 0.0
31/10:00pm 6.9 4.2 3.5 79 1.5 NNE 7 9 4 5 1018.3 - 0.0
31/09:30pm 7.9 6.1 3.6 74 1.9 NNE 2 6 1 3 1018.3 - 0.0
31/09:00pm 8.6 6.9 4.2 74 2.0 NE 2 7 1 4 1018.3 1019.2 0.0
31/08:30pm 8.9 5.9 4.3 73 2.1 NNE 9 11 5 6 1018.3 - 0.0
31/08:00pm 9.6 6.3 4.8 72 2.2 N 11 15 6 8 1018.2 - 0.0
31/07:30pm 9.7 6.0 4.7 71 2.3 NNE 13 15 7 8 1018.0 - 0.0
31/07:00pm 10.8 6.8 4.9 67 2.8 NNE 15 19 8 10 1017.9 - 0.0
31/06:30pm 11.4 7.4 4.8 64 3.1 NNE 15 19 8 10 1017.8 - 0.0
31/06:00pm 11.6 8.0 4.8 63 3.2 NNE 13 17 7 9 1017.7 1018.6 0.0
31/05:30pm 12.9 8.5 4.8 58 3.9 N 17 20 9 11 1017.6 - 0.0
31/05:00pm 14.3 9.4 4.9 53 4.5 NNW 20 30 11 16 1017.4 - 0.0
31/04:30pm 15.4 9.8 5.3 51 4.9 NNW 24 30 13 16 1017.1 - 0.0
31/04:00pm 16.1 10.6 5.7 50 5.2 N 24 28 13 15 1017.1 - 0.0
31/03:30pm 16.6 12.1 5.9 49 5.3 N 19 24 10 13 1017.1 - 0.0
31/03:00pm 16.5 12.3 5.5 48 5.4 N 17 22 9 12 1017.4 1018.3 0.0
31/02:30pm 16.6 11.5 6.1 50 5.3 N 22 28 12 15 1017.8 - 0.0
31/02:00pm 16.4 12.3 6.2 51 5.1 NNW 17 26 9 14 1018.1 - 0.0
31/01:30pm 16.5 12.1 4.9 46 5.7 NNW 17 20 9 11 1018.3 - 0.0
31/01:00pm 16.6 12.7 7.0 53 4.9 NNW 17 26 9 14 1018.7 - 0.0
31/12:30pm 15.3 11.3 6.6 56 4.4 N 17 22 9 12 1019.4 - 0.0
31/12:00pm 13.5 10.4 7.3 66 3.1 N 13 17 7 9 1020.0 1020.9 0.0
31/11:30am 11.9 9.1 6.8 71 2.5 N 11 17 6 9 1020.7 - 0.0
31/11:00am 10.7 8.4 7.6 81 1.5 N 9 13 5 7 1021.4 - 0.0
31/10:30am 8.7 5.8 6.5 86 1.1 N 11 15 6 8 1022.0 - 0.0
31/10:00am 7.1 4.4 5.7 91 0.6 NNW 9 13 5 7 1022.2 - 0.0
31/09:30am 6.7 5.0 5.7 93 0.5 WNW 4 9 2 5 1022.2 - 0.0
31/09:00am 5.5 3.0 4.8 95 0.3 E 7 9 4 5 1022.3 1023.3 0.0
31/08:30am 5.0 2.1 4.9 99 0.0 ESE 9 11 5 6 1022.3 - 0.0
31/07:59am 4.5 1.5 4.2 98 0.1 ESE 9 13 5 7 1022.4 - 0.0
31/07:30am 4.1 1.3 3.2 94 0.4 ESE 7 9 4 5 1022.3 - 0.0
31/07:00am 3.9 1.4 3.5 97 0.2 ESE 6 7 3 4 1022.0 - 0.0
31/06:30am 3.7 0.9 3.1 96 0.3 E 7 11 4 6 1021.7 - 0.0
31/06:00am 3.8 0.7 3.7 99 0.0 ESE 9 11 5 6 1021.5 1022.4 0.0
31/05:30am 3.3 0.7 3.2 99 0.0 S 6 7 3 4 1021.5 - 0.0
31/05:00am 2.4 0.8 2.3 99 0.0 CALM 0 0 0 0 1021.4 - 0.0
31/04:42am 1.9 0.2 1.8 99 0.0 CALM 0 0 0 0 1021.5 - 0.0
31/04:35am 1.7 0.0 1.6 99 0.0 CALM 0 0 0 0 1021.6 - 0.0
31/04:30am 1.2 -0.6 1.1 99 0.0 CALM 0 0 0 0 1021.6 - 0.0
31/04:09am 0.2 -1.8 0.1 99 0.0 CALM 0 0 0 0 1021.6 - 0.0
31/04:00am 0.5 -1.4 0.4 99 0.0 CALM 0 0 0 0 1021.7 - 0.0
31/03:50am 0.6 -1.3 0.5 99 0.0 CALM 0 0 0 0 1021.7 - 0.0
31/03:42am 1.5 -0.6 1.4 99 0.0 NNE 2 6 1 3 1021.6 - 0.0
31/03:30am 0.9 -2.1 0.8 99 0.0 NE 6 7 3 4 1021.7 - 0.0
31/03:16am 0.2 -2.9 0.1 99 0.0 NNE 6 7 3 4 1021.8 - 0.0
31/03:12am 0.1 -3.2 0.0 99 0.0 N 7 9 4 5 1021.8 - 0.0
31/03:00am 1.3 -1.8 1.2 99 0.0 N 7 9 4 5 1021.9 1022.9 0.0
31/02:46am 0.7 -2.3 0.6 99 0.0 N 6 7 3 4 1022.0 - 0.0
31/02:30am 1.2 -1.4 1.1 99 0.0 E 4 7 2 4 1022.2 - 0.0
31/02:00am 1.7 -1.4 1.6 99 0.0 SE 7 9 4 5 1022.3 - 0.0
31/01:30am 1.8 0.1 1.7 99 0.0 CALM 0 0 0 0 1022.5 - 0.0
31/01:20am 1.6 -0.2 1.5 99 0.0 CALM 0 0 0 0 1022.7 - 0.0
31/01:17am 1.4 -0.4 1.3 99 0.0 CALM 0 0 0 0 1022.7 - 0.0
31/01:00am 3.1 0.3 3.0 99 0.0 NE 7 7 4 4 1022.8 - 0.0
31/12:59am 3.1 0.3 3.0 99 0.0 NE 7 7 4 4 1023.0 - 0.0
31/12:34am 1.6 -1.5 1.2 97 0.2 ENE 7 9 4 5 1023.2 - 0.0
31/12:31am 1.7 -1.4 1.3 97 0.2 E 7 7 4 4 1023.2 - 0.0
31/12:30am 1.9 -1.2 1.5 97 0.2 E 7 7 4 4 1023.1 - 0.0
31/12:00am 3.0 0.3 2.9 99 0.0 N 6 13 3 7 1023.2 1024.2 0.0
 
Date/Time
EST
Temp
°C
App
Temp
°C
Dew
Point
Rel
Hum
%
Delta-T
°C
Wind Press
QNH
hPa
Press
MSL
hPa
Rain
since 9 am
mm
Dir
 
Spd
km/h
Gust
km/h
Spd
kts
Gust
kts
30/11:31pm 3.6 0.5 3.5 99 0.0 ESE 9 13 5 7 1023.4 - 0.0
30/11:30pm 3.6 0.5 3.5 99 0.0 ESE 9 13 5 7 1023.4 - 0.0
30/11:08pm 3.0 0.3 2.6 97 0.2 SE 6 9 3 5 1023.5 - 0.0
30/11:00pm 3.9 2.5 3.6 98 0.1 CALM 0 0 0 0 1023.5 - 0.0
30/10:30pm 4.0 2.1 3.1 94 0.4 SE 2 7 1 4 1023.6 - 0.0
30/10:00pm 6.1 3.9 5.2 94 0.4 ESE 6 7 3 4 1023.7 - 0.0
30/09:30pm 6.4 5.4 5.4 93 0.5 CALM 0 7 0 4 1023.8 - 0.0
30/09:00pm 6.8 5.8 5.4 91 0.6 CALM 0 0 0 0 1023.8 1024.8 0.0
30/08:30pm 5.9 3.4 4.5 91 0.6 ENE 7 9 4 5 1023.8 - 0.0
30/08:00pm 6.1 3.1 4.1 87 0.9 E 9 13 5 7 1023.6 - 0.0
30/07:30pm 8.1 6.6 5.2 82 1.3 ENE 2 7 1 4 1023.5 - 0.0
30/07:00pm 10.0 7.4 6.2 77 1.8 ENE 9 13 5 7 1023.2 - 0.0
30/06:30pm 10.9 9.0 6.6 75 2.1 NE 6 11 3 6 1023.1 - 0.0
30/06:00pm 7.7 4.2 3.4 74 1.9 E 11 11 6 6 1022.7 1023.7 0.0
30/05:30pm 11.7 8.3 4.2 60 3.5 ENE 11 11 6 6 1022.5 - 0.0
30/05:00pm 13.4 9.3 4.6 55 4.2 E 15 17 8 9 1022.4 - 0.0
30/04:30pm 15.5 11.5 5.1 50 5.1 E 15 19 8 10 1022.3 - 0.0
30/04:00pm 16.2 11.8 4.9 47 5.5 E 17 28 9 15 1022.3 - 0.0
30/03:30pm 16.6 12.9 4.6 45 5.8 E 13 19 7 10 1022.4 - 0.0
30/03:00pm 16.5 12.4 4.5 45 5.8 E 15 17 8 9 1022.6 1023.6 0.0
30/02:30pm 16.7 13.5 5.0 46 5.7 SSE 11 17 6 9 1022.8 - 0.0
30/02:00pm 15.3 12.4 4.9 50 5.0 SSE 9 15 5 8 1023.4 - 0.0
30/01:30pm 16.5 13.9 6.1 50 5.2 SSE 9 15 5 8 1023.7 - 0.0
30/01:00pm 16.3 11.9 4.7 46 5.6 S 17 26 9 14 1024.0 - 0.0
30/12:30pm 15.5 12.0 5.4 51 5.0 SE 13 26 7 14 1024.4 - 0.0
30/12:00pm 15.2 11.8 6.0 54 4.5 SSE 13 20 7 11 1025.0 1026.0 0.0
30/11:30am 14.2 10.6 5.0 54 4.4 SE 13 20 7 11 1025.4 - 0.0
30/11:00am 13.7 8.7 4.6 54 4.3 S 20 26 11 14 1025.8 - 0.0
30/10:30am 12.2 8.4 3.9 57 3.9 SSE 13 19 7 10 1026.2 - 0.0
30/10:00am 12.2 8.5 4.2 58 3.7 SE 13 17 7 9 1026.4 - 0.0
30/09:30am 11.1 5.1 3.6 60 3.4 S 24 30 13 16 1026.4 - 0.0

Other Formats:

Comma delimited format used in spreadsheet applications
http://www.bom.gov.au/fwo/IDN60801/IDN60801.94926.axf

JavaScript Object Notation format (JSON) in row-major order
http://www.bom.gov.au/fwo/IDN60801/IDN60801.94926.json